Time;durP1;ratioP1;P1;durP2;ratioP2;P2;SDS_P1;SDS_P2;PMS_P1;PMS_P2;Temp;Humidity;BMP_temperature;BMP_pressure;BME280_temperature;BME280_humidity;BME280_pressure;Samples;Min_cycle;Max_cycle;Signal;HPM_P1;HPM_P2
2023/06/30 00:00:34;;;;;;;5.15;4.10;;;18.90;99.90;;;;;;5036649;28;20029;-88
2023/06/30 00:03:07;;;;;;;5.10;3.88;;;18.80;99.90;;;;;;5038284;28;20032;-88
2023/06/30 00:05:34;;;;;;;4.93;4.43;;;18.80;99.90;;;;;;5045952;28;20048;-88
2023/06/30 00:08:00;;;;;;;4.75;4.25;;;18.80;99.90;;;;;;5043617;28;20037;-88
2023/06/30 00:10:26;;;;;;;5.32;4.35;;;18.70;99.90;;;;;;5054643;28;20040;-88
2023/06/30 00:12:52;;;;;;;5.38;4.72;;;18.70;99.90;;;;;;5008060;28;20407;-88
2023/06/30 00:15:18;;;;;;;4.32;3.92;;;18.60;99.90;;;;;;5042954;28;20064;-89
2023/06/30 00:17:43;;;;;;;4.45;4.15;;;18.60;99.90;;;;;;5036549;28;20045;-88
2023/06/30 00:20:11;;;;;;;3.88;3.58;;;18.60;99.90;;;;;;5029474;28;20033;-89
2023/06/30 00:22:37;;;;;;;4.10;3.72;;;18.60;99.90;;;;;;5035948;28;20037;-90
2023/06/30 00:25:04;;;;;;;5.97;4.05;;;18.60;99.90;;;;;;5043159;28;20041;-88
2023/06/30 00:27:30;;;;;;;3.97;3.67;;;18.60;99.90;;;;;;5056613;28;20047;-87
2023/06/30 00:29:56;;;;;;;3.88;3.58;;;18.60;99.90;;;;;;5042578;28;20044;-86
2023/06/30 00:32:23;;;;;;;4.60;4.20;;;18.60;99.90;;;;;;5054721;28;20537;-88
2023/06/30 00:34:50;;;;;;;4.85;3.75;;;18.50;99.90;;;;;;5053495;28;20086;-88
2023/06/30 00:37:16;;;;;;;5.03;4.57;;;18.50;99.90;;;;;;5054569;28;20041;-89
2023/06/30 00:39:41;;;;;;;5.07;3.97;;;18.40;99.90;;;;;;5018165;28;20033;-88
2023/06/30 00:42:10;;;;;;;4.25;3.85;;;18.40;99.90;;;;;;5041114;28;20040;-88
2023/06/30 00:44:36;;;;;;;5.00;4.50;;;18.40;99.90;;;;;;5034855;28;20026;-88
2023/06/30 00:47:02;;;;;;;4.43;4.03;;;18.40;99.90;;;;;;5039784;28;20040;-89
2023/06/30 00:49:30;;;;;;;4.05;3.75;;;18.40;99.90;;;;;;5036201;28;20053;-87
2023/06/30 00:51:56;;;;;;;4.45;4.05;;;18.40;99.90;;;;;;5034564;28;20017;-88
2023/06/30 00:54:23;;;;;;;3.90;3.60;;;18.40;99.90;;;;;;5001572;28;20048;-87
2023/06/30 00:56:48;;;;;;;4.30;3.90;;;18.40;99.90;;;;;;5053905;28;20029;-88
2023/06/30 00:59:14;;;;;;;4.43;4.03;;;18.40;99.90;;;;;;5053827;28;20036;-88
2023/06/30 01:01:48;;;;;;;5.15;4.47;;;18.30;99.90;;;;;;5056295;28;20029;-88
2023/06/30 01:04:35;;;;;;;4.45;3.78;;;18.30;99.90;;;;;;5051859;28;20055;-87
2023/06/30 01:07:04;;;;;;;4.88;4.18;;;18.30;99.90;;;;;;5037602;28;20033;-88
2023/06/30 01:09:36;;;;;;;4.40;4.00;;;18.20;99.90;;;;;;5054329;28;20090;-87
2023/06/30 01:12:03;;;;;;;4.63;4.13;;;18.20;99.90;;;;;;5049262;28;20029;-88
2023/06/30 01:14:31;;;;;;;5.40;4.40;;;18.20;99.90;;;;;;5055643;28;20029;-87
2023/06/30 01:16:58;;;;;;;4.70;4.30;;;18.20;99.90;;;;;;5036108;28;20487;-88
2023/06/30 01:19:37;;;;;;;5.07;4.30;;;18.10;99.90;;;;;;5035426;28;20037;-89
2023/06/30 01:22:14;;;;;;;5.05;3.88;;;18.10;99.90;;;;;;5040925;28;20025;-88
2023/06/30 01:24:43;;;;;;;6.13;4.95;;;18.00;99.90;;;;;;5057738;28;20021;-89
2023/06/30 01:27:12;;;;;;;5.68;4.65;;;18.00;99.90;;;;;;5034130;28;20033;-89
2023/06/30 01:29:42;;;;;;;5.65;4.82;;;17.90;99.90;;;;;;5035678;28;20061;-88
2023/06/30 01:32:09;;;;;;;5.60;4.82;;;17.90;99.90;;;;;;5037904;28;20129;-88
2023/06/30 01:34:37;;;;;;;5.20;4.70;;;17.90;99.90;;;;;;5033484;28;20029;-88
2023/06/30 01:37:03;;;;;;;5.03;4.53;;;17.80;99.90;;;;;;5036333;28;20449;-89
2023/06/30 01:39:29;;;;;;;6.22;4.40;;;17.80;99.90;;;;;;5039820;28;20037;-89
2023/06/30 01:41:55;;;;;;;5.75;4.18;;;17.80;99.90;;;;;;5037827;28;20036;-88
2023/06/30 01:44:21;;;;;;;5.25;4.15;;;17.80;99.90;;;;;;5038049;28;20415;-89
2023/06/30 01:46:47;;;;;;;4.03;3.72;;;17.80;99.90;;;;;;5026642;28;20025;-87
2023/06/30 01:49:13;;;;;;;4.43;4.03;;;17.80;99.90;;;;;;5061431;28;20033;-88
2023/06/30 01:51:39;;;;;;;4.50;4.10;;;17.80;99.90;;;;;;5053984;28;20482;-89
2023/06/30 01:54:05;;;;;;;6.97;4.30;;;17.80;99.90;;;;;;5022957;28;20029;-88
2023/06/30 01:56:31;;;;;;;5.25;4.70;;;17.80;99.90;;;;;;5057819;28;20067;-88
2023/06/30 01:58:57;;;;;;;4.95;4.45;;;17.80;99.90;;;;;;5039885;28;20025;-88
2023/06/30 02:01:22;;;;;;;5.60;4.60;;;17.80;99.90;;;;;;5046728;28;20059;-88
2023/06/30 02:03:49;;;;;;;5.90;4.25;;;17.80;99.90;;;;;;5037404;28;20136;-87
2023/06/30 02:06:15;;;;;;;6.60;4.50;;;17.80;99.90;;;;;;5042701;28;20079;-88
2023/06/30 02:08:41;;;;;;;5.38;4.97;;;17.80;99.90;;;;;;5027629;28;20041;-89
2023/06/30 02:11:07;;;;;;;4.95;4.55;;;17.80;99.90;;;;;;5012108;28;20190;-89
2023/06/30 02:13:33;;;;;;;6.00;5.15;;;17.80;99.90;;;;;;5053114;28;20059;-89
2023/06/30 02:15:59;;;;;;;5.13;4.68;;;17.90;99.90;;;;;;5055127;28;20033;-89
2023/06/30 02:18:25;;;;;;;5.03;4.60;;;17.90;99.90;;;;;;5040537;28;20033;-88
2023/06/30 02:20:51;;;;;;;5.45;4.95;;;17.90;99.90;;;;;;5045339;28;20025;-89
2023/06/30 02:23:17;;;;;;;5.72;5.15;;;17.80;99.90;;;;;;5037429;28;20025;-88
2023/06/30 02:25:44;;;;;;;5.70;5.10;;;17.90;99.90;;;;;;5037924;28;20075;-90
2023/06/30 02:28:10;;;;;;;5.10;4.60;;;17.90;99.90;;;;;;5041892;28;20037;-88
2023/06/30 02:30:35;;;;;;;7.70;4.63;;;17.80;99.90;;;;;;5054462;28;20430;-88
2023/06/30 02:33:03;;;;;;;5.65;4.60;;;17.80;99.90;;;;;;5055408;28;20105;-88
2023/06/30 02:35:28;;;;;;;5.10;4.60;;;17.80;99.90;;;;;;5054390;28;20057;-87
2023/06/30 02:37:54;;;;;;;7.93;5.22;;;17.70;99.90;;;;;;5052007;28;20056;-87
2023/06/30 02:40:22;;;;;;;5.47;5.03;;;17.80;99.90;;;;;;5054424;28;20029;-87
2023/06/30 02:42:47;;;;;;;7.22;5.35;;;17.80;99.90;;;;;;5061107;28;20167;-87
2023/06/30 02:45:17;;;;;;;5.55;4.80;;;17.70;99.90;;;;;;5039175;28;20057;-87
2023/06/30 02:47:43;;;;;;;5.75;5.03;;;17.70;99.90;;;;;;5069574;28;20025;-86
2023/06/30 02:50:09;;;;;;;5.55;4.78;;;17.70;99.90;;;;;;5006464;28;20025;-88
2023/06/30 02:52:37;;;;;;;5.85;5.32;;;17.60;99.90;;;;;;5036120;28;20033;-88
2023/06/30 02:55:03;;;;;;;6.10;5.43;;;17.60;99.90;;;;;;5043161;28;20041;-88
2023/06/30 02:57:29;;;;;;;6.28;5.53;;;17.60;99.90;;;;;;5039479;28;20759;-88
2023/06/30 02:59:56;;;;;;;4.85;4.45;;;17.60;99.90;;;;;;5039964;28;20025;-88
2023/06/30 03:02:22;;;;;;;4.80;4.40;;;17.60;99.90;;;;;;5037824;28;20036;-88
2023/06/30 03:04:48;;;;;;;5.45;4.95;;;17.60;99.90;;;;;;5054594;28;20024;-88
2023/06/30 03:07:16;;;;;;;5.60;4.75;;;17.60;99.90;;;;;;5060287;28;20574;-88
2023/06/30 03:09:43;;;;;;;4.88;4.38;;;17.70;99.90;;;;;;5037705;28;20028;-88
2023/06/30 03:12:10;;;;;;;5.07;4.65;;;17.70;99.90;;;;;;5036847;28;20036;-88
2023/06/30 03:14:39;;;;;;;5.43;4.57;;;17.70;99.90;;;;;;5035053;28;20033;-88
2023/06/30 03:17:12;;;;;;;5.05;4.65;;;17.70;99.90;;;;;;5033510;28;20491;-90
2023/06/30 03:19:38;;;;;;;4.35;4.00;;;17.70;99.90;;;;;;5052799;28;20032;-91
2023/06/30 03:22:04;;;;;;;5.95;4.60;;;17.60;99.90;;;;;;5034616;28;20037;-88
2023/06/30 03:24:30;;;;;;;4.75;4.32;;;17.60;99.90;;;;;;5033885;28;20683;-88
2023/06/30 03:26:56;;;;;;;5.30;4.57;;;17.60;99.90;;;;;;5050753;28;20028;-87
2023/06/30 03:29:24;;;;;;;4.75;4.35;;;17.60;99.90;;;;;;5034294;28;20094;-88
2023/06/30 03:31:52;;;;;;;4.68;4.25;;;17.50;99.90;;;;;;5034643;28;20032;-89
2023/06/30 03:34:18;;;;;;;5.20;4.78;;;17.50;99.90;;;;;;5034391;28;20055;-89
2023/06/30 03:36:44;;;;;;;5.95;4.40;;;17.50;99.90;;;;;;5032762;28;20033;-89
2023/06/30 03:39:10;;;;;;;5.30;4.80;;;17.50;99.90;;;;;;5034612;28;20027;-89
2023/06/30 03:41:36;;;;;;;4.57;4.20;;;17.50;99.90;;;;;;5018049;28;20039;-90
2023/06/30 03:44:01;;;;;;;5.75;5.25;;;17.50;99.90;;;;;;5034027;28;20802;-89
2023/06/30 03:46:27;;;;;;;5.22;4.72;;;17.40;99.90;;;;;;5030080;28;20036;-89
2023/06/30 03:48:53;;;;;;;7.15;5.28;;;17.40;99.90;;;;;;5049470;28;20604;-88
2023/06/30 03:51:19;;;;;;;6.47;5.30;;;17.30;99.90;;;;;;5038808;28;20183;-89
2023/06/30 03:53:50;;;;;;;5.93;5.32;;;17.30;99.90;;;;;;5070354;28;20153;-89
2023/06/30 03:56:16;;;;;;;5.50;5.00;;;17.30;99.90;;;;;;5001981;28;20032;-89
2023/06/30 03:58:42;;;;;;;6.97;5.75;;;17.30;99.90;;;;;;5033275;28;20040;-89
2023/06/30 04:01:07;;;;;;;7.13;5.65;;;17.30;99.90;;;;;;5033686;28;20118;-89
2023/06/30 04:03:33;;;;;;;7.60;6.70;;;17.30;99.90;;;;;;5033842;28;20079;-88
2023/06/30 04:05:59;;;;;;;6.00;5.40;;;17.30;99.90;;;;;;5048324;28;20029;-89
2023/06/30 04:08:25;;;;;;;5.82;5.22;;;17.30;99.90;;;;;;5033628;28;20041;-89
2023/06/30 04:10:51;;;;;;;6.68;6.07;;;17.30;99.90;;;;;;5033749;28;20047;-88
2023/06/30 04:13:17;;;;;;;6.53;5.80;;;17.30;99.90;;;;;;5033614;28;20029;-89
2023/06/30 04:15:45;;;;;;;6.88;5.40;;;17.30;99.90;;;;;;5049878;28;20021;-91
2023/06/30 04:18:11;;;;;;;6.28;5.68;;;17.30;99.90;;;;;;5033998;28;20418;-89
2023/06/30 04:20:37;;;;;;;6.72;5.28;;;17.40;99.90;;;;;;5033931;28;20021;-90
2023/06/30 04:23:03;;;;;;;7.22;6.32;;;17.40;99.90;;;;;;5034669;28;20079;-88
2023/06/30 04:25:29;;;;;;;6.70;5.93;;;17.50;99.90;;;;;;5033469;28;20033;-89
2023/06/30 04:27:55;;;;;;;6.57;5.97;;;17.50;99.90;;;;;;5033532;28;20052;-88
2023/06/30 04:30:21;;;;;;;8.45;5.80;;;17.50;99.90;;;;;;5036933;28;20044;-89
2023/06/30 04:32:46;;;;;;;7.15;6.55;;;17.60;99.90;;;;;;5033191;28;20055;-89
2023/06/30 04:35:13;;;;;;;6.63;6.03;;;17.60;99.90;;;;;;5049960;28;20044;-89
2023/06/30 04:37:42;;;;;;;6.68;6.03;;;17.60;99.90;;;;;;5033522;28;20471;-89
2023/06/30 04:40:08;;;;;;;5.93;5.32;;;17.60;99.90;;;;;;5036549;28;20487;-89
2023/06/30 04:42:35;;;;;;;5.63;5.13;;;17.60;99.90;;;;;;5038039;28;20055;-89
2023/06/30 04:45:01;;;;;;;6.78;4.88;;;17.70;99.90;;;;;;5051083;28;20031;-89
2023/06/30 04:47:27;;;;;;;5.40;4.60;;;17.70;99.90;;;;;;5049198;28;20033;-89
2023/06/30 04:49:54;;;;;;;4.75;4.00;;;17.80;99.90;;;;;;5033071;28;20560;-89
2023/06/30 04:52:20;;;;;;;4.32;3.92;;;17.90;99.90;;;;;;5033444;28;20055;-89
2023/06/30 04:54:46;;;;;;;5.20;4.28;;;17.90;99.90;;;;;;5033305;28;20217;-89
2023/06/30 04:57:11;;;;;;;5.20;4.70;;;18.00;99.90;;;;;;5049681;28;20479;-90
2023/06/30 04:59:38;;;;;;;6.70;4.50;;;18.10;99.90;;;;;;5016885;28;20051;-90
2023/06/30 05:02:04;;;;;;;5.05;4.55;;;18.10;99.90;;;;;;5038183;28;20033;-89
2023/06/30 05:04:30;;;;;;;5.53;4.22;;;18.20;99.90;;;;;;5000523;28;20033;-89
2023/06/30 05:06:56;;;;;;;4.85;4.45;;;18.20;99.90;;;;;;5033004;28;20039;-89
2023/06/30 05:09:22;;;;;;;6.13;4.85;;;18.30;99.90;;;;;;5033315;28;20029;-89
2023/06/30 05:11:49;;;;;;;5.38;4.97;;;18.30;99.90;;;;;;5052927;28;20368;-90
2023/06/30 05:14:15;;;;;;;5.70;5.20;;;18.40;99.90;;;;;;5033608;28;20522;-91
2023/06/30 05:16:40;;;;;;;5.18;4.70;;;18.40;99.90;;;;;;5046691;28;20029;-89
2023/06/30 05:19:06;;;;;;;4.95;4.60;;;18.50;99.90;;;;;;5037092;28;20033;-89
2023/06/30 05:21:32;;;;;;;5.95;4.65;;;18.50;99.90;;;;;;5053843;28;20055;-89
2023/06/30 05:23:58;;;;;;;4.70;4.30;;;18.60;99.90;;;;;;5037412;28;20033;-89
2023/06/30 05:26:24;;;;;;;5.68;5.18;;;18.60;99.90;;;;;;5037968;28;20036;-91
2023/06/30 05:28:49;;;;;;;5.45;4.93;;;18.70;99.90;;;;;;5037484;28;20037;-89
2023/06/30 05:31:15;;;;;;;5.45;4.90;;;18.80;99.90;;;;;;5037687;28;20033;-89
2023/06/30 05:33:41;;;;;;;5.50;5.00;;;18.90;99.90;;;;;;5037474;28;20033;-90
2023/06/30 05:36:07;;;;;;;5.50;4.97;;;19.10;99.90;;;;;;5053597;28;20041;-89
2023/06/30 05:38:32;;;;;;;5.82;5.20;;;19.30;99.90;;;;;;5020464;28;20174;-90
2023/06/30 05:40:58;;;;;;;5.88;5.38;;;19.50;99.90;;;;;;5033506;28;20079;-89
2023/06/30 05:43:25;;;;;;;5.82;5.25;;;19.80;99.90;;;;;;5017201;28;20130;-89
2023/06/30 05:45:50;;;;;;;5.72;5.13;;;20.00;99.90;;;;;;5051345;28;20044;-89
2023/06/30 05:48:16;;;;;;;6.15;4.65;;;20.30;99.90;;;;;;5053284;28;20597;-89
2023/06/30 05:50:45;;;;;;;6.45;5.28;;;20.50;99.90;;;;;;5053039;28;20082;-88
2023/06/30 05:53:11;;;;;;;6.07;5.28;;;20.80;99.90;;;;;;5036247;28;20028;-89
2023/06/30 05:55:37;;;;;;;5.93;5.18;;;21.00;99.90;;;;;;5040542;28;20044;-89
2023/06/30 05:58:03;;;;;;;5.10;4.60;;;21.10;99.90;;;;;;5038935;28;20100;-89
2023/06/30 06:00:29;;;;;;;5.15;4.75;;;21.30;99.90;;;;;;5056705;28;20060;-89
2023/06/30 06:02:54;;;;;;;4.93;4.53;;;21.50;99.90;;;;;;5034901;28;20063;-90
2023/06/30 06:05:23;;;;;;;5.05;4.32;;;21.60;99.90;;;;;;5050784;28;20029;-91
2023/06/30 06:07:49;;;;;;;8.73;5.10;;;21.80;99.90;;;;;;5039136;28;20574;-88
2023/06/30 06:10:15;;;;;;;6.03;5.40;;;21.90;99.90;;;;;;5038635;28;20057;-90
2023/06/30 06:12:52;;;;;;;7.13;4.60;;;21.90;99.90;;;;;;5035204;28;20089;-89
2023/06/30 06:15:22;;;;;;;6.18;4.80;;;21.90;99.90;;;;;;5047849;28;20025;-89
2023/06/30 06:17:47;;;;;;;6.85;4.55;;;22.10;99.90;;;;;;5037220;28;20037;-89
2023/06/30 06:20:13;;;;;;;5.93;4.40;;;22.40;99.90;;;;;;5043926;28;20406;-89
2023/06/30 06:22:39;;;;;;;4.63;4.30;;;22.70;99.90;;;;;;5036969;28;20040;-89
2023/06/30 06:25:05;;;;;;;5.82;5.22;;;22.90;99.90;;;;;;5047780;28;20487;-89
2023/06/30 06:27:35;;;;;;;7.10;4.50;;;23.10;99.90;;;;;;5042051;28;20037;-90
2023/06/30 06:30:02;;;;;;;8.43;4.80;;;23.40;99.90;;;;;;5056565;28;20044;-90
2023/06/30 06:32:28;;;;;;;6.00;4.22;;;23.60;99.90;;;;;;5039631;28;20037;-88
2023/06/30 06:34:54;;;;;;;5.18;4.68;;;24.00;99.90;;;;;;5060368;28;20069;-87
2023/06/30 06:37:20;;;;;;;6.40;5.20;;;24.30;99.90;;;;;;5035851;28;20103;-88
2023/06/30 06:39:45;;;;;;;6.22;4.65;;;24.30;99.90;;;;;;5037845;28;20037;-90
2023/06/30 06:42:11;;;;;;;5.53;4.45;;;24.50;98.40;;;;;;5040656;28;20100;-88
2023/06/30 06:44:37;;;;;;;6.45;4.45;;;24.70;99.10;;;;;;5029331;28;20033;-88
2023/06/30 06:47:40;;;;;;;5.93;4.72;;;24.90;96.90;;;;;;5034266;28;20032;-89
2023/06/30 06:50:07;;;;;;;5.45;4.05;;;25.00;95.40;;;;;;5035748;28;20048;-87
2023/06/30 06:52:34;;;;;;;4.85;4.35;;;24.80;95.60;;;;;;5035099;28;20091;-88
2023/06/30 06:54:59;;;;;;;7.13;5.35;;;24.50;95.90;;;;;;5020441;28;20035;-87
2023/06/30 06:57:25;;;;;;;8.60;7.47;;;24.20;97.10;;;;;;5010074;28;20029;-89
2023/06/30 06:59:51;;;;;;;7.18;5.47;;;24.00;97.90;;;;;;5039209;28;20641;-89
2023/06/30 07:02:16;;;;;;;7.95;5.20;;;23.80;97.60;;;;;;5035886;28;20033;-89
2023/06/30 07:04:43;;;;;;;8.25;4.85;;;23.60;97.90;;;;;;5027586;28;20040;-90
2023/06/30 07:07:09;;;;;;;7.18;5.65;;;23.70;98.30;;;;;;5044978;28;20391;-90
2023/06/30 07:09:34;;;;;;;10.75;6.68;;;23.60;98.70;;;;;;5038408;28;20039;-89
2023/06/30 07:12:00;;;;;;;7.75;6.32;;;23.60;98.70;;;;;;5034936;28;20036;-90
2023/06/30 07:14:26;;;;;;;8.63;7.10;;;23.50;99.40;;;;;;5004439;28;20029;-89
2023/06/30 07:16:52;;;;;;;8.57;6.72;;;23.60;99.60;;;;;;5033252;28;20491;-89
2023/06/30 07:19:17;;;;;;;8.77;7.03;;;23.80;99.60;;;;;;5037771;28;20028;-90
2023/06/30 07:21:43;;;;;;;7.45;6.75;;;23.80;98.10;;;;;;5020159;28;20028;-88
2023/06/30 07:24:09;;;;;;;8.10;6.55;;;23.80;98.80;;;;;;5024628;28;20745;-91
2023/06/30 07:26:35;;;;;;;7.75;6.95;;;23.90;97.60;;;;;;5047590;28;20031;-89
2023/06/30 07:29:00;;;;;;;8.48;7.30;;;24.00;98.00;;;;;;5025291;28;20086;-89
2023/06/30 07:31:30;;;;;;;6.70;6.10;;;24.00;96.90;;;;;;5001035;28;20086;-87
2023/06/30 07:33:56;;;;;;;8.43;6.90;;;23.80;96.90;;;;;;5051335;28;20094;-89
2023/06/30 07:36:22;;;;;;;8.05;6.68;;;24.00;98.00;;;;;;5054360;28;20040;-89
2023/06/30 07:38:48;;;;;;;8.73;6.55;;;24.20;96.80;;;;;;5039653;28;20697;-88
2023/06/30 07:41:14;;;;;;;6.00;5.20;;;24.50;95.70;;;;;;5032275;28;20044;-89
2023/06/30 07:43:39;;;;;;;7.18;6.03;;;24.60;97.10;;;;;;5032266;28;20029;-88
2023/06/30 07:46:05;;;;;;;7.10;6.20;;;24.60;97.60;;;;;;5039552;28;20157;-89
2023/06/30 07:48:31;;;;;;;7.35;5.97;;;24.70;96.10;;;;;;5033704;28;20037;-89
2023/06/30 07:50:57;;;;;;;6.88;6.18;;;24.60;96.00;;;;;;5002467;28;20022;-87
2023/06/30 07:53:23;;;;;;;5.90;5.30;;;24.50;97.50;;;;;;4998004;28;20095;-88
2023/06/30 07:55:48;;;;;;;6.13;5.50;;;24.70;96.20;;;;;;5054729;28;20123;-90
2023/06/30 07:58:14;;;;;;;5.78;5.18;;;25.00;97.20;;;;;;5054498;28;20849;-88
2023/06/30 08:00:40;;;;;;;5.82;5.18;;;25.00;97.90;;;;;;5035234;28;20384;-88
2023/06/30 08:03:05;;;;;;;6.97;6.28;;;24.90;96.90;;;;;;5037282;28;20059;-89
2023/06/30 08:05:31;;;;;;;6.05;5.40;;;25.10;97.20;;;;;;5054331;28;20681;-86
2023/06/30 08:07:57;;;;;;;6.05;5.40;;;25.40;96.90;;;;;;5031448;28;20033;-88
2023/06/30 08:10:23;;;;;;;6.45;5.78;;;25.60;94.60;;;;;;5032151;28;20399;-88
2023/06/30 08:12:49;;;;;;;5.45;4.95;;;25.70;94.00;;;;;;5037891;28;20028;-88
2023/06/30 08:15:15;;;;;;;8.20;4.97;;;25.60;94.10;;;;;;5002132;28;20049;-90
2023/06/30 08:17:40;;;;;;;5.93;5.35;;;26.00;92.80;;;;;;5038402;28;20078;-89
2023/06/30 08:20:07;;;;;;;7.80;5.70;;;26.10;91.90;;;;;;5056567;28;20514;-88
2023/06/30 08:22:33;;;;;;;6.40;5.72;;;26.10;90.40;;;;;;5032007;28;20083;-89
2023/06/30 08:24:58;;;;;;;6.70;5.68;;;25.90;91.10;;;;;;5035123;28;20032;-89
2023/06/30 08:27:24;;;;;;;6.82;5.50;;;25.80;90.70;;;;;;5048187;28;20040;-90
2023/06/30 08:29:50;;;;;;;5.30;4.80;;;25.70;91.30;;;;;;5000077;28;20089;-89
2023/06/30 08:32:16;;;;;;;5.32;4.82;;;25.90;92.00;;;;;;5031223;28;20124;-89
2023/06/30 08:34:43;;;;;;;5.70;4.95;;;26.20;91.00;;;;;;5034574;28;20043;-88
2023/06/30 08:37:09;;;;;;;7.82;5.65;;;26.60;92.10;;;;;;5033844;28;20037;-86
2023/06/30 08:39:39;;;;;;;8.13;6.40;;;26.70;87.70;;;;;;5051260;28;20086;-89
2023/06/30 08:42:06;;;;;;;7.90;5.72;;;26.10;87.60;;;;;;5034335;28;20059;-89
2023/06/30 08:44:35;;;;;;;7.40;4.97;;;26.10;88.30;;;;;;5039456;28;20040;-90
2023/06/30 08:47:01;;;;;;;8.73;5.78;;;26.00;89.80;;;;;;5050118;28;20134;-91
2023/06/30 08:49:29;;;;;;;7.45;5.72;;;26.10;89.40;;;;;;5034936;28;20082;-90
2023/06/30 08:52:15;;;;;;;6.88;5.25;;;25.90;92.00;;;;;;5048878;28;20037;-91
2023/06/30 08:55:02;;;;;;;;;;;26.10;92.70;;;;;;5048851;28;20120;-90
2023/06/30 08:57:37;;;;;;;5.35;4.78;;;26.40;90.80;;;;;;5038240;28;19913;-92
2023/06/30 09:00:11;;;;;;;5.70;5.00;;;26.50;91.70;;;;;;5038125;28;20037;-90
2023/06/30 09:03:11;;;;;;;9.38;6.00;;;26.50;86.40;;;;;;5023594;28;20469;-88
2023/06/30 09:05:43;;;;;;;7.18;5.13;;;26.60;90.90;;;;;;5045423;28;20036;-89
2023/06/30 09:08:27;;;;;;;8.35;5.72;;;26.50;87.20;;;;;;5057446;28;20055;-89
2023/06/30 09:11:04;;;;;;;6.30;4.72;;;26.40;82.70;;;;;;5044721;28;20070;-91
2023/06/30 09:14:03;;;;;;;5.63;4.90;;;26.60;90.30;;;;;;5022621;28;20045;-90
2023/06/30 09:23:45;;;;;;;6.53;5.40;;;27.00;84.20;;;;;;5040694;28;20042;-91
2023/06/30 09:26:34;;;;;;;7.20;5.72;;;27.10;89.80;;;;;;5037681;28;20029;-88
2023/06/30 09:29:35;;;;;;;10.20;5.82;;;27.20;90.10;;;;;;5049726;28;20040;-90
2023/06/30 09:32:41;;;;;;;6.60;5.57;;;27.30;87.90;;;;;;5021447;28;20100;-89
2023/06/30 09:35:18;;;;;;;8.30;5.82;;;27.60;84.50;;;;;;5064995;28;21532;-91
2023/06/30 09:38:45;;;;;;;;;;;;;;;;;;;;;
2023/06/30 09:41:35;;;;;;;9.60;6.13;;;27.50;85.60;;;;;;5041975;28;20029;-90
2023/06/30 09:44:17;;;;;;;10.90;5.90;;;27.40;79.30;;;;;;4999749;28;20123;-90
2023/06/30 09:47:12;;;;;;;10.90;5.97;;;27.40;82.10;;;;;;5048854;28;20021;-91
2023/06/30 09:50:29;;;;;;;8.95;6.68;;;27.40;87.50;;;;;;5037619;28;20108;-88
2023/06/30 09:53:30;;;;;;;10.75;6.53;;;27.40;76.80;;;;;;5045820;28;20040;-88
2023/06/30 09:56:04;;;;;;;7.88;6.43;;;27.30;78.10;;;;;;5032194;28;20034;-87
2023/06/30 09:58:57;;;;;;;8.35;6.43;;;27.10;80.50;;;;;;5047769;28;20044;-89
2023/06/30 10:01:34;;;;;;;9.90;7.40;;;27.10;78.10;;;;;;5036006;28;20035;-88
2023/06/30 10:04:14;;;;;;;10.52;6.55;;;27.10;80.00;;;;;;5008819;28;20052;-89
2023/06/30 10:35:14;;;;;;;11.77;8.40;;;26.80;85.90;;;;;;4882925;29;20505;-89
2023/06/30 10:37:59;;;;;;;;;;;;;;;;;;;;;
2023/06/30 10:45:03;;;;;;;9.68;8.13;;;26.30;85.90;;;;;;5012826;28;20040;-89
2023/06/30 10:47:58;;;;;;;11.15;9.02;;;26.30;87.50;;;;;;5046040;28;20022;-88
2023/06/30 10:51:50;;;;;;;13.52;8.95;;;26.30;85.50;;;;;;5040954;28;20025;-90
2023/06/30 10:54:45;;;;;;;13.20;9.20;;;26.30;82.00;;;;;;4955832;28;20041;-89
2023/06/30 10:58:08;;;;;;;9.98;7.97;;;26.20;76.80;;;;;;4977848;28;20050;-88
2023/06/30 11:01:16;;;;;;;10.68;8.25;;;26.00;84.80;;;;;;4974781;28;20030;-88
2023/06/30 11:04:00;;;;;;;12.18;8.45;;;25.90;88.50;;;;;;4954865;28;20061;-88
2023/06/30 11:06:36;;;;;;;13.00;9.63;;;25.60;89.00;;;;;;4990017;28;20077;-88
2023/06/30 11:09:48;;;;;;;11.57;9.07;;;25.50;90.50;;;;;;4990731;28;20034;-89
2023/06/30 11:12:56;;;;;;;11.30;8.88;;;25.40;90.50;;;;;;4957564;28;20074;-88
2023/06/30 11:15:55;;;;;;;14.07;9.50;;;25.20;91.00;;;;;;5046175;28;20037;-88
2023/06/30 11:18:57;;;;;;;13.40;9.82;;;25.20;91.10;;;;;;5010771;28;20045;-89
2023/06/30 11:21:36;;;;;;;14.20;11.00;;;25.20;91.40;;;;;;4972958;28;20114;-89
2023/06/30 11:24:18;;;;;;;14.75;9.85;;;25.20;91.30;;;;;;5034605;28;20499;-88
2023/06/30 11:27:47;;;;;;;12.43;9.80;;;25.30;91.70;;;;;;5011606;28;20070;-89
2023/06/30 11:30:46;;;;;;;;;;;;;;;;;;;;;
2023/06/30 11:34:08;;;;;;;12.82;8.90;;;25.30;90.30;;;;;;5010887;28;20041;-88
2023/06/30 11:37:18;;;;;;;10.82;8.48;;;25.50;91.00;;;;;;5051154;28;20021;-88
2023/06/30 11:40:02;;;;;;;12.55;8.68;;;25.60;88.10;;;;;;5033339;28;20037;-87
2023/06/30 11:42:39;;;;;;;12.45;9.35;;;25.70;87.40;;;;;;5051058;28;20036;-88
2023/06/30 11:45:28;;;;;;;13.50;8.93;;;25.80;88.30;;;;;;5033680;28;20043;-89
2023/06/30 11:48:25;;;;;;;;;;;;;;;;;;;;;
2023/06/30 11:51:13;;;;;;;8.50;7.05;;;26.10;88.10;;;;;;5052829;28;20021;-90
2023/06/30 11:53:59;;;;;;;11.35;7.80;;;26.30;83.50;;;;;;4995808;28;20038;-89
2023/06/30 11:56:35;;;;;;;8.55;7.40;;;26.50;84.90;;;;;;4979534;28;20049;-89
2023/06/30 12:03:20;;;;;;;10.60;7.43;;;26.90;82.60;;;;;;5026199;28;20608;-88
2023/06/30 12:10:12;;;;;;;9.70;7.15;;;27.20;85.60;;;;;;4970158;28;20480;-88
2023/06/30 12:12:58;;;;;;;9.88;6.70;;;27.20;81.80;;;;;;4953294;28;20041;-88
2023/06/30 12:21:55;;;;;;;8.55;6.75;;;26.60;85.10;;;;;;5031715;28;20132;-89
2023/06/30 12:24:55;;;;;;;8.30;6.28;;;26.40;85.40;;;;;;5049053;28;20036;-89
2023/06/30 12:27:57;;;;;;;8.73;6.47;;;26.20;86.60;;;;;;5008653;28;20042;-88
2023/06/30 12:31:16;;;;;;;9.35;7.07;;;26.00;84.80;;;;;;4994375;28;20092;-89
2023/06/30 12:34:34;;;;;;;8.57;6.80;;;25.80;87.70;;;;;;4988811;28;20034;-88
2023/06/30 12:37:44;;;;;;;12.77;7.15;;;25.70;88.10;;;;;;5037211;28;20067;-89
2023/06/30 12:40:19;;;;;;;7.13;6.43;;;25.60;89.00;;;;;;5058099;28;20079;-89
2023/06/30 12:42:46;;;;;;;8.02;6.15;;;25.50;89.20;;;;;;5033424;28;20438;-88
2023/06/30 12:45:18;;;;;;;8.32;6.53;;;25.40;90.50;;;;;;5025693;28;20029;-89
2023/06/30 12:48:09;;;;;;;8.73;6.50;;;25.30;88.30;;;;;;5003858;28;20124;-88
2023/06/30 12:51:25;;;;;;;7.82;6.75;;;25.20;87.30;;;;;;5030315;28;20066;-88
2023/06/30 12:58:22;;;;;;;7.80;6.82;;;25.00;89.20;;;;;;4975341;28;20035;-88
2023/06/30 13:01:30;;;;;;;8.95;7.18;;;24.90;88.90;;;;;;5011854;28;20037;-87
2023/06/30 13:04:27;;;;;;;9.65;7.00;;;24.80;89.50;;;;;;5032030;28;20041;-87
2023/06/30 13:15:06;;;;;;;;;;;;;;;;;;;;;
2023/06/30 13:30:02;;;;;;;13.40;8.75;;;23.90;94.50;;;;;;4900726;29;20499;-85
2023/06/30 13:33:32;;;;;;;;;;;;;;;;;;;;;
2023/06/30 13:36:32;;;;;;;11.65;7.88;;;23.50;95.80;;;;;;4902563;29;20491;-87
2023/06/30 13:58:26;;;;;;;11.23;8.43;;;23.40;99.60;;;;;;4852722;29;20264;-87
2023/06/30 14:02:10;;;;;;;10.70;8.68;;;23.30;99.90;;;;;;4838868;29;20350;-87
2023/06/30 14:04:49;;;;;;;10.38;8.60;;;23.30;99.90;;;;;;4889615;29;20039;-86
2023/06/30 14:07:38;;;;;;;11.88;9.13;;;23.20;99.90;;;;;;4927737;28;20576;-88
2023/06/30 14:18:34;;;;;;;11.60;8.55;;;23.00;99.90;;;;;;4949159;28;20034;-87
2023/06/30 14:22:27;;;;;;;10.75;8.80;;;22.80;99.90;;;;;;4996301;28;20102;-88
2023/06/30 14:26:19;;;;;;;11.15;8.25;;;22.70;99.90;;;;;;5052056;28;20538;-89
2023/06/30 14:48:47;;;;;;;;;;;;;;;;;;;;;
2023/06/30 14:52:22;;;;;;;10.75;8.52;;;23.20;99.90;;;;;;4948227;28;20110;-88
2023/06/30 15:02:18;;;;;;;17.70;10.60;;;22.40;99.90;;;;;;4973646;28;19916;-91
2023/06/30 15:05:41;;;;;;;18.25;10.95;;;21.60;99.90;;;;;;4969355;28;20046;-89
2023/06/30 15:39:01;;;;;;;;;;;;;;;;;;;;;
2023/06/30 15:45:58;;;;;;;21.05;15.30;;;18.40;99.90;;;;;;4956636;28;20030;-88
2023/06/30 15:53:12;;;;;;;;;;;;;;;;;;;;;
2023/06/30 16:04:26;;;;;;;20.27;14.65;;;19.00;99.90;;;;;;4807776;29;20083;-89
2023/06/30 16:20:03;;;;;;;20.70;13.95;;;19.20;99.90;;;;;;4910219;29;20865;-89
2023/06/30 16:23:14;;;;;;;17.85;13.88;;;19.20;99.90;;;;;;4909598;29;20042;-89
2023/06/30 16:26:32;;;;;;;;;;;;;;;;;;;;;
2023/06/30 16:41:29;;;;;;;;;;;;;;;;;;;;;
2023/06/30 16:44:20;;;;;;;17.13;14.60;;;19.00;99.90;;;;;;4815819;29;21695;-88
2023/06/30 16:47:45;;;;;;;18.15;14.48;;;19.00;99.90;;;;;;4863218;29;20084;-86
2023/06/30 16:55:45;;;;;;;17.60;14.57;;;19.00;99.90;;;;;;4830505;29;20088;-88
2023/06/30 17:03:54;;;;;;;16.70;14.32;;;19.20;99.90;;;;;;4866072;29;20092;-86
2023/06/30 17:07:28;;;;;;;19.10;14.82;;;19.20;99.90;;;;;;4834329;29;20608;-86
2023/06/30 17:10:33;;;;;;;19.58;15.77;;;19.20;99.90;;;;;;4847840;29;20033;-87
2023/06/30 17:25:15;;;;;;;20.33;15.13;;;18.80;99.90;;;;;;4895718;29;20032;-87
2023/06/30 17:35:34;;;;;;;21.67;16.35;;;18.60;99.90;;;;;;4960904;28;20047;-87
2023/06/30 17:46:09;;;;;;;19.92;14.40;;;18.60;99.90;;;;;;4978056;28;20088;-90